sensor_id;sensor_type;location;lat;lon;timestamp;temperature;humidity
314;DHT22;143;51.634;7.112;2022-09-09T00:02:01;16.80;1.00
314;DHT22;143;51.634;7.112;2022-09-09T00:04:35;16.80;1.00
314;DHT22;143;51.634;7.112;2022-09-09T00:09:47;16.70;1.00
314;DHT22;143;51.634;7.112;2022-09-09T00:12:15;16.70;1.00
314;DHT22;143;51.634;7.112;2022-09-09T00:14:55;16.70;1.00
314;DHT22;143;51.634;7.112;2022-09-09T00:17:26;16.80;1.00
314;DHT22;143;51.634;7.112;2022-09-09T00:22:29;16.70;1.00
314;DHT22;143;51.634;7.112;2022-09-09T00:25:11;16.70;1.00
314;DHT22;143;51.634;7.112;2022-09-09T00:27:44;16.70;1.00
314;DHT22;143;51.634;7.112;2022-09-09T00:30:25;16.70;1.00
314;DHT22;143;51.634;7.112;2022-09-09T00:32:55;16.70;1.00
314;DHT22;143;51.634;7.112;2022-09-09T00:35:31;16.70;1.00
314;DHT22;143;51.634;7.112;2022-09-09T00:38:01;16.70;1.00
314;DHT22;143;51.634;7.112;2022-09-09T00:40:32;16.70;1.00
314;DHT22;143;51.634;7.112;2022-09-09T00:57:31;16.50;1.00
314;DHT22;143;51.634;7.112;2022-09-09T01:05:51;16.40;1.00
314;DHT22;143;51.634;7.112;2022-09-09T01:11:21;16.30;1.00
314;DHT22;143;51.634;7.112;2022-09-09T01:13:55;16.20;1.00
314;DHT22;143;51.634;7.112;2022-09-09T01:16:25;16.20;1.00
314;DHT22;143;51.634;7.112;2022-09-09T01:18:53;16.20;1.00
314;DHT22;143;51.634;7.112;2022-09-09T01:26:37;16.00;1.00
314;DHT22;143;51.634;7.112;2022-09-09T01:29:16;16.00;1.00
314;DHT22;143;51.634;7.112;2022-09-09T01:34:18;16.00;1.00
314;DHT22;143;51.634;7.112;2022-09-09T01:37:06;16.00;1.00
314;DHT22;143;51.634;7.112;2022-09-09T01:39:34;16.00;1.00
314;DHT22;143;51.634;7.112;2022-09-09T01:42:00;16.00;1.00
314;DHT22;143;51.634;7.112;2022-09-09T01:44:28;16.00;1.00
314;DHT22;143;51.634;7.112;2022-09-09T01:46:55;16.10;1.00
314;DHT22;143;51.634;7.112;2022-09-09T01:49:21;16.10;1.00
314;DHT22;143;51.634;7.112;2022-09-09T01:51:51;16.10;1.00
314;DHT22;143;51.634;7.112;2022-09-09T01:54:19;16.10;1.00
314;DHT22;143;51.634;7.112;2022-09-09T01:57:00;16.10;1.00
314;DHT22;143;51.634;7.112;2022-09-09T02:02:56;16.20;1.00
314;DHT22;143;51.634;7.112;2022-09-09T02:08:25;16.20;1.00
314;DHT22;143;51.634;7.112;2022-09-09T02:11:02;16.20;1.00
314;DHT22;143;51.634;7.112;2022-09-09T02:13:32;16.20;1.00
314;DHT22;143;51.634;7.112;2022-09-09T02:16:27;16.20;1.00
314;DHT22;143;51.634;7.112;2022-09-09T02:19:13;16.20;1.00
314;DHT22;143;51.634;7.112;2022-09-09T02:21:41;16.20;1.00
314;DHT22;143;51.634;7.112;2022-09-09T02:24:08;16.20;1.00
314;DHT22;143;51.634;7.112;2022-09-09T02:26:39;16.30;1.00
314;DHT22;143;51.634;7.112;2022-09-09T02:29:09;16.30;1.00
314;DHT22;143;51.634;7.112;2022-09-09T02:31:37;16.30;1.00
314;DHT22;143;51.634;7.112;2022-09-09T02:34:05;16.40;1.00
314;DHT22;143;51.634;7.112;2022-09-09T02:36:34;16.40;1.00
314;DHT22;143;51.634;7.112;2022-09-09T02:39:01;16.40;1.00
314;DHT22;143;51.634;7.112;2022-09-09T02:41:31;16.40;1.00
314;DHT22;143;51.634;7.112;2022-09-09T02:43:57;16.40;1.00
314;DHT22;143;51.634;7.112;2022-09-09T02:49:09;16.40;1.00
314;DHT22;143;51.634;7.112;2022-09-09T02:51:37;16.40;1.00
314;DHT22;143;51.634;7.112;2022-09-09T02:54:13;16.30;1.00
314;DHT22;143;51.634;7.112;2022-09-09T02:56:48;16.30;1.00
314;DHT22;143;51.634;7.112;2022-09-09T02:59:15;16.30;1.00
314;DHT22;143;51.634;7.112;2022-09-09T03:01:41;16.30;1.00
314;DHT22;143;51.634;7.112;2022-09-09T03:04:07;16.20;1.00
314;DHT22;143;51.634;7.112;2022-09-09T03:06:33;16.20;1.00
314;DHT22;143;51.634;7.112;2022-09-09T03:08:58;16.20;1.00
314;DHT22;143;51.634;7.112;2022-09-09T03:11:27;16.20;1.00
314;DHT22;143;51.634;7.112;2022-09-09T03:13:53;16.20;1.00
314;DHT22;143;51.634;7.112;2022-09-09T03:16:21;16.30;1.00
314;DHT22;143;51.634;7.112;2022-09-09T03:18:47;16.30;1.00
314;DHT22;143;51.634;7.112;2022-09-09T03:21:13;16.30;1.00
314;DHT22;143;51.634;7.112;2022-09-09T03:23:39;16.30;1.00
314;DHT22;143;51.634;7.112;2022-09-09T03:26:05;16.40;1.00
314;DHT22;143;51.634;7.112;2022-09-09T03:28:31;16.30;1.00
314;DHT22;143;51.634;7.112;2022-09-09T03:31:04;16.40;1.00
314;DHT22;143;51.634;7.112;2022-09-09T03:33:30;16.40;1.00
314;DHT22;143;51.634;7.112;2022-09-09T03:35:56;16.30;1.00
314;DHT22;143;51.634;7.112;2022-09-09T03:38:25;16.40;1.00
314;DHT22;143;51.634;7.112;2022-09-09T03:40:52;16.40;1.00
314;DHT22;143;51.634;7.112;2022-09-09T03:43:21;16.40;1.00
314;DHT22;143;51.634;7.112;2022-09-09T03:45:48;16.40;1.00
314;DHT22;143;51.634;7.112;2022-09-09T03:48:14;16.40;1.00
314;DHT22;143;51.634;7.112;2022-09-09T03:50:47;16.30;1.00
314;DHT22;143;51.634;7.112;2022-09-09T03:53:14;16.40;1.00
314;DHT22;143;51.634;7.112;2022-09-09T03:55:47;16.30;1.00
314;DHT22;143;51.634;7.112;2022-09-09T03:58:14;16.40;1.00
314;DHT22;143;51.634;7.112;2022-09-09T04:00:40;16.30;1.00
314;DHT22;143;51.634;7.112;2022-09-09T04:03:11;16.40;1.00
314;DHT22;143;51.634;7.112;2022-09-09T04:05:39;16.40;1.00
314;DHT22;143;51.634;7.112;2022-09-09T04:08:07;16.40;1.00
314;DHT22;143;51.634;7.112;2022-09-09T04:10:34;16.50;1.00
314;DHT22;143;51.634;7.112;2022-09-09T04:13:03;16.50;1.00
314;DHT22;143;51.634;7.112;2022-09-09T04:15:29;16.50;1.00
314;DHT22;143;51.634;7.112;2022-09-09T04:17:54;16.50;1.00
314;DHT22;143;51.634;7.112;2022-09-09T04:20:20;16.50;1.00
314;DHT22;143;51.634;7.112;2022-09-09T04:22:47;16.50;1.00
314;DHT22;143;51.634;7.112;2022-09-09T04:25:13;16.50;1.00
314;DHT22;143;51.634;7.112;2022-09-09T04:27:39;16.50;1.00
314;DHT22;143;51.634;7.112;2022-09-09T04:30:06;16.50;1.00
314;DHT22;143;51.634;7.112;2022-09-09T04:32:35;16.60;1.00
314;DHT22;143;51.634;7.112;2022-09-09T04:35:02;16.50;1.00
314;DHT22;143;51.634;7.112;2022-09-09T04:37:28;16.50;1.00
314;DHT22;143;51.634;7.112;2022-09-09T04:39:54;16.60;1.00
314;DHT22;143;51.634;7.112;2022-09-09T04:42:19;16.60;1.00
314;DHT22;143;51.634;7.112;2022-09-09T04:44:45;16.60;1.00
314;DHT22;143;51.634;7.112;2022-09-09T04:47:11;16.60;1.00
314;DHT22;143;51.634;7.112;2022-09-09T04:49:37;16.60;1.00
314;DHT22;143;51.634;7.112;2022-09-09T04:52:04;16.60;1.00
314;DHT22;143;51.634;7.112;2022-09-09T04:54:29;16.60;1.00
314;DHT22;143;51.634;7.112;2022-09-09T04:56:55;16.60;1.00
314;DHT22;143;51.634;7.112;2022-09-09T04:59:21;16.60;1.00
314;DHT22;143;51.634;7.112;2022-09-09T05:01:48;16.60;1.00
314;DHT22;143;51.634;7.112;2022-09-09T05:04:13;16.60;1.00
314;DHT22;143;51.634;7.112;2022-09-09T05:06:42;16.60;1.00
314;DHT22;143;51.634;7.112;2022-09-09T05:09:08;16.50;1.00
314;DHT22;143;51.634;7.112;2022-09-09T05:11:34;16.50;1.00
314;DHT22;143;51.634;7.112;2022-09-09T05:14:04;16.50;1.00
314;DHT22;143;51.634;7.112;2022-09-09T05:16:30;16.40;1.00
314;DHT22;143;51.634;7.112;2022-09-09T05:18:56;16.40;1.00
314;DHT22;143;51.634;7.112;2022-09-09T05:21:23;16.40;1.00
314;DHT22;143;51.634;7.112;2022-09-09T05:23:50;16.40;1.00
314;DHT22;143;51.634;7.112;2022-09-09T05:26:20;16.40;1.00
314;DHT22;143;51.634;7.112;2022-09-09T05:28:47;16.40;1.00
314;DHT22;143;51.634;7.112;2022-09-09T05:31:14;16.50;1.00
314;DHT22;143;51.634;7.112;2022-09-09T05:33:41;16.50;1.00
314;DHT22;143;51.634;7.112;2022-09-09T05:36:10;16.50;1.00
314;DHT22;143;51.634;7.112;2022-09-09T05:38:38;16.50;1.00
314;DHT22;143;51.634;7.112;2022-09-09T05:41:05;16.50;1.00
314;DHT22;143;51.634;7.112;2022-09-09T05:43:31;16.60;1.00
314;DHT22;143;51.634;7.112;2022-09-09T05:46:03;16.60;1.00
314;DHT22;143;51.634;7.112;2022-09-09T05:48:35;16.70;1.00
314;DHT22;143;51.634;7.112;2022-09-09T05:51:01;16.70;1.00
314;DHT22;143;51.634;7.112;2022-09-09T05:53:28;16.70;1.00
314;DHT22;143;51.634;7.112;2022-09-09T05:56:05;16.80;1.00
314;DHT22;143;51.634;7.112;2022-09-09T05:58:34;16.80;1.00
314;DHT22;143;51.634;7.112;2022-09-09T06:01:10;16.80;1.00
314;DHT22;143;51.634;7.112;2022-09-09T06:03:38;16.90;1.00
314;DHT22;143;51.634;7.112;2022-09-09T06:06:07;16.90;1.00
314;DHT22;143;51.634;7.112;2022-09-09T06:08:34;16.90;1.00
314;DHT22;143;51.634;7.112;2022-09-09T06:13:32;16.90;1.00
314;DHT22;143;51.634;7.112;2022-09-09T06:15:58;16.90;1.00
314;DHT22;143;51.634;7.112;2022-09-09T06:18:25;16.90;1.00
314;DHT22;143;51.634;7.112;2022-09-09T06:20:59;16.90;1.00
314;DHT22;143;51.634;7.112;2022-09-09T06:23:26;16.80;1.00
314;DHT22;143;51.634;7.112;2022-09-09T06:26:03;16.80;1.00
314;DHT22;143;51.634;7.112;2022-09-09T06:28:31;16.80;1.00
314;DHT22;143;51.634;7.112;2022-09-09T06:30:58;16.80;1.00
314;DHT22;143;51.634;7.112;2022-09-09T06:33:25;16.90;1.00
314;DHT22;143;51.634;7.112;2022-09-09T06:35:54;16.90;1.00
314;DHT22;143;51.634;7.112;2022-09-09T06:38:20;16.90;1.00
314;DHT22;143;51.634;7.112;2022-09-09T06:40:54;17.00;1.00
314;DHT22;143;51.634;7.112;2022-09-09T06:43:21;17.00;1.00
314;DHT22;143;51.634;7.112;2022-09-09T06:45:59;17.10;1.00
314;DHT22;143;51.634;7.112;2022-09-09T06:48:25;17.10;1.00
314;DHT22;143;51.634;7.112;2022-09-09T06:51:11;17.10;1.00
314;DHT22;143;51.634;7.112;2022-09-09T06:53:38;17.20;1.00
314;DHT22;143;51.634;7.112;2022-09-09T06:58:41;17.20;1.00
314;DHT22;143;51.634;7.112;2022-09-09T07:01:10;17.30;1.00
314;DHT22;143;51.634;7.112;2022-09-09T07:03:38;17.30;1.00
314;DHT22;143;51.634;7.112;2022-09-09T07:06:05;17.30;1.00
314;DHT22;143;51.634;7.112;2022-09-09T07:08:31;17.30;1.00
314;DHT22;143;51.634;7.112;2022-09-09T07:11:04;17.30;1.00
314;DHT22;143;51.634;7.112;2022-09-09T07:13:31;17.40;1.00
314;DHT22;143;51.634;7.112;2022-09-09T07:16:08;17.40;1.00
314;DHT22;143;51.634;7.112;2022-09-09T07:18:34;17.40;1.00
314;DHT22;143;51.634;7.112;2022-09-09T07:21:00;17.50;1.00
314;DHT22;143;51.634;7.112;2022-09-09T07:23:27;17.50;1.00
314;DHT22;143;51.634;7.112;2022-09-09T07:25:53;17.40;1.00
314;DHT22;143;51.634;7.112;2022-09-09T07:28:20;17.50;1.00
314;DHT22;143;51.634;7.112;2022-09-09T07:31:02;17.60;1.00
314;DHT22;143;51.634;7.112;2022-09-09T07:33:28;17.60;1.00
314;DHT22;143;51.634;7.112;2022-09-09T07:36:14;17.60;1.00
314;DHT22;143;51.634;7.112;2022-09-09T07:38:41;17.60;1.00
314;DHT22;143;51.634;7.112;2022-09-09T07:41:10;17.60;1.00
314;DHT22;143;51.634;7.112;2022-09-09T07:43:41;17.70;1.00
314;DHT22;143;51.634;7.112;2022-09-09T07:46:08;17.70;1.00
314;DHT22;143;51.634;7.112;2022-09-09T07:48:35;17.70;1.00
314;DHT22;143;51.634;7.112;2022-09-09T07:51:09;17.80;1.00
314;DHT22;143;51.634;7.112;2022-09-09T07:53:37;17.80;1.00
314;DHT22;143;51.634;7.112;2022-09-09T07:56:09;17.80;1.00
314;DHT22;143;51.634;7.112;2022-09-09T07:58:39;17.90;1.00
314;DHT22;143;51.634;7.112;2022-09-09T08:01:17;17.90;1.00
314;DHT22;143;51.634;7.112;2022-09-09T08:03:46;18.00;1.00
314;DHT22;143;51.634;7.112;2022-09-09T08:06:13;18.00;1.00
314;DHT22;143;51.634;7.112;2022-09-09T08:08:39;18.10;1.00
314;DHT22;143;51.634;7.112;2022-09-09T08:11:14;18.10;1.00
314;DHT22;143;51.634;7.112;2022-09-09T08:13:44;18.20;1.00
314;DHT22;143;51.634;7.112;2022-09-09T08:16:16;18.20;1.00
314;DHT22;143;51.634;7.112;2022-09-09T08:18:42;18.30;1.00
314;DHT22;143;51.634;7.112;2022-09-09T08:21:12;18.30;1.00
314;DHT22;143;51.634;7.112;2022-09-09T08:23:42;18.30;1.00
314;DHT22;143;51.634;7.112;2022-09-09T08:26:16;18.30;1.00
314;DHT22;143;51.634;7.112;2022-09-09T08:28:43;18.30;1.00
314;DHT22;143;51.634;7.112;2022-09-09T08:31:18;18.30;1.00
314;DHT22;143;51.634;7.112;2022-09-09T08:33:45;18.30;1.00
314;DHT22;143;51.634;7.112;2022-09-09T08:36:19;18.30;99.90
314;DHT22;143;51.634;7.112;2022-09-09T08:38:49;18.30;99.90
314;DHT22;143;51.634;7.112;2022-09-09T08:50:05;18.40;99.90
314;DHT22;143;51.634;7.112;2022-09-09T08:52:41;18.50;99.90
314;DHT22;143;51.634;7.112;2022-09-09T08:55:33;18.60;99.90
314;DHT22;143;51.634;7.112;2022-09-09T09:00:57;18.80;99.90
314;DHT22;143;51.634;7.112;2022-09-09T09:03:50;18.90;99.90
314;DHT22;143;51.634;7.112;2022-09-09T09:12:28;18.90;99.90
314;DHT22;143;51.634;7.112;2022-09-09T09:14:55;18.90;99.90
314;DHT22;143;51.634;7.112;2022-09-09T09:17:25;18.80;99.90
314;DHT22;143;51.634;7.112;2022-09-09T09:19:52;18.90;99.90
314;DHT22;143;51.634;7.112;2022-09-09T09:22:43;19.00;99.90
314;DHT22;143;51.634;7.112;2022-09-09T09:25:24;19.10;99.90
314;DHT22;143;51.634;7.112;2022-09-09T09:30:39;19.40;99.90
314;DHT22;143;51.634;7.112;2022-09-09T09:35:57;19.70;99.90
314;DHT22;143;51.634;7.112;2022-09-09T09:38:26;19.70;99.90
314;DHT22;143;51.634;7.112;2022-09-09T09:40:55;19.80;99.90
314;DHT22;143;51.634;7.112;2022-09-09T09:43:32;19.90;99.90
314;DHT22;143;51.634;7.112;2022-09-09T09:45:58;19.90;99.90
314;DHT22;143;51.634;7.112;2022-09-09T09:48:26;19.90;99.90
314;DHT22;143;51.634;7.112;2022-09-09T09:50:55;20.00;99.90
314;DHT22;143;51.634;7.112;2022-09-09T09:53:25;20.00;94.40
314;DHT22;143;51.634;7.112;2022-09-09T09:56:00;20.00;83.20
314;DHT22;143;51.634;7.112;2022-09-09T09:58:30;20.00;66.10
314;DHT22;143;51.634;7.112;2022-09-09T10:00:57;20.00;31.60
314;DHT22;143;51.634;7.112;2022-09-09T10:03:28;20.00;31.50
314;DHT22;143;51.634;7.112;2022-09-09T10:05:55;20.00;12.10
314;DHT22;143;51.634;7.112;2022-09-09T10:08:23;20.00;10.70
314;DHT22;143;51.634;7.112;2022-09-09T10:11:04;20.10;28.60
314;DHT22;143;51.634;7.112;2022-09-09T10:13:44;20.10;39.70
314;DHT22;143;51.634;7.112;2022-09-09T10:19:30;20.00;1.00
314;DHT22;143;51.634;7.112;2022-09-09T10:22:32;20.00;1.00
314;DHT22;143;51.634;7.112;2022-09-09T10:33:41;20.00;1.00
314;DHT22;143;51.634;7.112;2022-09-09T10:38:52;20.00;1.00
314;DHT22;143;51.634;7.112;2022-09-09T10:44:06;20.00;1.00
314;DHT22;143;51.634;7.112;2022-09-09T10:50:09;20.00;1.00
314;DHT22;143;51.634;7.112;2022-09-09T10:53:02;20.10;8.10
314;DHT22;143;51.634;7.112;2022-09-09T10:55:39;20.40;43.30
314;DHT22;143;51.634;7.112;2022-09-09T10:58:13;20.70;1.00
314;DHT22;143;51.634;7.112;2022-09-09T11:00:43;20.80;1.00
314;DHT22;143;51.634;7.112;2022-09-09T11:03:23;20.90;1.00
314;DHT22;143;51.634;7.112;2022-09-09T11:06:06;20.90;1.00
314;DHT22;143;51.634;7.112;2022-09-09T11:08:38;20.80;1.00
314;DHT22;143;51.634;7.112;2022-09-09T11:11:27;20.70;1.00
314;DHT22;143;51.634;7.112;2022-09-09T11:16:38;20.60;1.00
314;DHT22;143;51.634;7.112;2022-09-09T11:19:35;20.50;1.00
314;DHT22;143;51.634;7.112;2022-09-09T11:22:07;20.40;1.00
314;DHT22;143;51.634;7.112;2022-09-09T11:38:27;20.20;1.00
314;DHT22;143;51.634;7.112;2022-09-09T11:40:58;20.20;1.00
314;DHT22;143;51.634;7.112;2022-09-09T11:43:51;20.20;1.00
314;DHT22;143;51.634;7.112;2022-09-09T11:46:19;20.10;1.00
314;DHT22;143;51.634;7.112;2022-09-09T11:48:59;20.10;1.00
314;DHT22;143;51.634;7.112;2022-09-09T11:51:28;20.10;1.00
314;DHT22;143;51.634;7.112;2022-09-09T11:54:02;20.20;1.00
314;DHT22;143;51.634;7.112;2022-09-09T11:56:44;20.30;1.00
314;DHT22;143;51.634;7.112;2022-09-09T11:59:25;20.40;1.00
314;DHT22;143;51.634;7.112;2022-09-09T12:07:01;20.70;1.00
314;DHT22;143;51.634;7.112;2022-09-09T12:17:22;20.60;1.00
314;DHT22;143;51.634;7.112;2022-09-09T12:28:19;19.90;39.30
314;DHT22;143;51.634;7.112;2022-09-09T12:33:15;19.30;99.90
314;DHT22;143;51.634;7.112;2022-09-09T12:35:43;19.20;99.90
314;DHT22;143;51.634;7.112;2022-09-09T12:38:26;19.20;99.90
314;DHT22;143;51.634;7.112;2022-09-09T12:40:56;19.30;99.90
314;DHT22;143;51.634;7.112;2022-09-09T12:43:24;19.30;99.90
314;DHT22;143;51.634;7.112;2022-09-09T12:45:53;19.60;1.00
314;DHT22;143;51.634;7.112;2022-09-09T12:48:45;19.70;1.00
314;DHT22;143;51.634;7.112;2022-09-09T12:51:29;19.80;1.00
314;DHT22;143;51.634;7.112;2022-09-09T12:53:56;19.80;99.90
314;DHT22;143;51.634;7.112;2022-09-09T12:56:29;19.80;99.90
314;DHT22;143;51.634;7.112;2022-09-09T12:58:57;19.80;99.90
314;DHT22;143;51.634;7.112;2022-09-09T13:01:31;19.70;99.90
314;DHT22;143;51.634;7.112;2022-09-09T13:03:57;19.60;99.90
314;DHT22;143;51.634;7.112;2022-09-09T13:06:26;19.50;99.90
314;DHT22;143;51.634;7.112;2022-09-09T13:08:53;19.40;99.90
314;DHT22;143;51.634;7.112;2022-09-09T13:11:29;19.30;99.90
314;DHT22;143;51.634;7.112;2022-09-09T13:13:57;19.30;99.90
314;DHT22;143;51.634;7.112;2022-09-09T13:16:29;19.30;99.90
314;DHT22;143;51.634;7.112;2022-09-09T13:19:00;19.20;99.90
314;DHT22;143;51.634;7.112;2022-09-09T13:21:38;18.80;99.90
314;DHT22;143;51.634;7.112;2022-09-09T13:24:25;18.40;99.90
314;DHT22;143;51.634;7.112;2022-09-09T13:26:57;18.10;1.00
314;DHT22;143;51.634;7.112;2022-09-09T13:29:23;17.90;1.00
314;DHT22;143;51.634;7.112;2022-09-09T13:31:50;17.80;1.00
314;DHT22;143;51.634;7.112;2022-09-09T13:34:29;17.60;1.00
314;DHT22;143;51.634;7.112;2022-09-09T13:37:03;17.50;1.00
314;DHT22;143;51.634;7.112;2022-09-09T13:39:35;17.40;1.00
314;DHT22;143;51.634;7.112;2022-09-09T13:42:02;17.30;1.00
314;DHT22;143;51.634;7.112;2022-09-09T13:44:37;17.20;1.00
314;DHT22;143;51.634;7.112;2022-09-09T13:47:19;17.20;1.00
314;DHT22;143;51.634;7.112;2022-09-09T13:49:45;17.10;1.00
314;DHT22;143;51.634;7.112;2022-09-09T13:52:15;17.20;1.00
314;DHT22;143;51.634;7.112;2022-09-09T13:54:42;17.20;1.00
314;DHT22;143;51.634;7.112;2022-09-09T13:57:22;17.30;1.00
314;DHT22;143;51.634;7.112;2022-09-09T13:59:49;17.30;1.00
314;DHT22;143;51.634;7.112;2022-09-09T14:02:15;17.30;1.00
314;DHT22;143;51.634;7.112;2022-09-09T14:04:42;17.40;1.00
314;DHT22;143;51.634;7.112;2022-09-09T14:07:12;17.40;1.00
314;DHT22;143;51.634;7.112;2022-09-09T14:09:39;17.50;1.00
314;DHT22;143;51.634;7.112;2022-09-09T14:12:08;17.60;1.00
314;DHT22;143;51.634;7.112;2022-09-09T14:14:34;17.70;1.00
314;DHT22;143;51.634;7.112;2022-09-09T14:17:00;17.70;1.00
314;DHT22;143;51.634;7.112;2022-09-09T14:19:26;17.90;1.00
314;DHT22;143;51.634;7.112;2022-09-09T14:21:51;18.00;1.00
314;DHT22;143;51.634;7.112;2022-09-09T14:24:18;18.10;1.00
314;DHT22;143;51.634;7.112;2022-09-09T14:26:44;18.30;1.00
314;DHT22;143;51.634;7.112;2022-09-09T14:29:10;18.50;1.00
314;DHT22;143;51.634;7.112;2022-09-09T14:31:36;18.60;1.00
314;DHT22;143;51.634;7.112;2022-09-09T14:34:01;18.80;1.00
314;DHT22;143;51.634;7.112;2022-09-09T14:36:27;18.90;1.00
314;DHT22;143;51.634;7.112;2022-09-09T14:38:53;19.00;1.00
314;DHT22;143;51.634;7.112;2022-09-09T14:41:20;19.10;1.00
314;DHT22;143;51.634;7.112;2022-09-09T14:43:48;19.30;1.00
314;DHT22;143;51.634;7.112;2022-09-09T14:46:16;19.40;1.00
314;DHT22;143;51.634;7.112;2022-09-09T14:48:42;19.60;1.00
314;DHT22;143;51.634;7.112;2022-09-09T14:51:11;19.60;1.00
314;DHT22;143;51.634;7.112;2022-09-09T14:53:39;19.70;1.00
314;DHT22;143;51.634;7.112;2022-09-09T14:56:14;19.80;1.00
314;DHT22;143;51.634;7.112;2022-09-09T14:58:40;19.80;1.00
314;DHT22;143;51.634;7.112;2022-09-09T15:01:10;19.80;1.00
314;DHT22;143;51.634;7.112;2022-09-09T15:03:37;19.80;1.00
314;DHT22;143;51.634;7.112;2022-09-09T15:06:21;19.90;1.00
314;DHT22;143;51.634;7.112;2022-09-09T15:08:50;19.70;1.00
314;DHT22;143;51.634;7.112;2022-09-09T15:11:16;19.60;1.00
314;DHT22;143;51.634;7.112;2022-09-09T15:13:43;19.60;1.00
314;DHT22;143;51.634;7.112;2022-09-09T15:16:14;19.50;1.00
314;DHT22;143;51.634;7.112;2022-09-09T15:18:41;19.40;1.00
314;DHT22;143;51.634;7.112;2022-09-09T15:21:09;19.40;1.00
314;DHT22;143;51.634;7.112;2022-09-09T15:23:36;19.30;1.00
314;DHT22;143;51.634;7.112;2022-09-09T15:26:02;19.00;1.00
314;DHT22;143;51.634;7.112;2022-09-09T15:28:28;18.80;1.00
314;DHT22;143;51.634;7.112;2022-09-09T15:30:55;18.60;1.00
314;DHT22;143;51.634;7.112;2022-09-09T15:33:22;18.50;1.00
314;DHT22;143;51.634;7.112;2022-09-09T15:35:48;18.20;1.00
314;DHT22;143;51.634;7.112;2022-09-09T15:38:15;18.10;1.00
314;DHT22;143;51.634;7.112;2022-09-09T15:40:42;17.90;1.00
314;DHT22;143;51.634;7.112;2022-09-09T15:43:09;17.90;1.00
314;DHT22;143;51.634;7.112;2022-09-09T15:45:36;17.80;1.00
314;DHT22;143;51.634;7.112;2022-09-09T15:48:03;17.70;1.00
314;DHT22;143;51.634;7.112;2022-09-09T15:50:29;17.60;1.00
314;DHT22;143;51.634;7.112;2022-09-09T15:52:57;17.60;1.00
314;DHT22;143;51.634;7.112;2022-09-09T15:55:22;17.50;1.00
314;DHT22;143;51.634;7.112;2022-09-09T15:57:51;17.60;1.00
314;DHT22;143;51.634;7.112;2022-09-09T16:00:18;17.60;1.00
314;DHT22;143;51.634;7.112;2022-09-09T16:02:45;17.60;1.00
314;DHT22;143;51.634;7.112;2022-09-09T16:05:12;17.60;1.00
314;DHT22;143;51.634;7.112;2022-09-09T16:07:37;17.60;1.00
314;DHT22;143;51.634;7.112;2022-09-09T16:10:04;17.70;1.00
314;DHT22;143;51.634;7.112;2022-09-09T16:12:29;17.70;1.00
314;DHT22;143;51.634;7.112;2022-09-09T16:14:55;17.70;1.00
314;DHT22;143;51.634;7.112;2022-09-09T16:17:21;17.70;1.00
314;DHT22;143;51.634;7.112;2022-09-09T16:19:47;17.80;1.00
314;DHT22;143;51.634;7.112;2022-09-09T16:22:12;17.70;1.00
314;DHT22;143;51.634;7.112;2022-09-09T16:24:40;17.80;1.00
314;DHT22;143;51.634;7.112;2022-09-09T16:27:06;17.80;1.00
314;DHT22;143;51.634;7.112;2022-09-09T16:29:32;17.80;1.00
314;DHT22;143;51.634;7.112;2022-09-09T16:31:57;17.80;1.00
314;DHT22;143;51.634;7.112;2022-09-09T16:34:25;17.80;1.00
314;DHT22;143;51.634;7.112;2022-09-09T16:36:51;17.80;1.00
314;DHT22;143;51.634;7.112;2022-09-09T16:39:19;17.80;1.00
314;DHT22;143;51.634;7.112;2022-09-09T16:41:46;17.80;1.00
314;DHT22;143;51.634;7.112;2022-09-09T16:44:16;17.90;1.00
314;DHT22;143;51.634;7.112;2022-09-09T16:46:44;17.90;1.00
314;DHT22;143;51.634;7.112;2022-09-09T16:49:14;17.90;1.00
314;DHT22;143;51.634;7.112;2022-09-09T16:51:43;17.80;1.00
314;DHT22;143;51.634;7.112;2022-09-09T16:54:10;17.80;1.00
314;DHT22;143;51.634;7.112;2022-09-09T16:56:39;17.80;1.00
314;DHT22;143;51.634;7.112;2022-09-09T16:59:11;17.70;1.00
314;DHT22;143;51.634;7.112;2022-09-09T17:01:39;17.60;1.00
314;DHT22;143;51.634;7.112;2022-09-09T17:04:17;17.60;1.00
314;DHT22;143;51.634;7.112;2022-09-09T17:06:47;17.60;1.00
314;DHT22;143;51.634;7.112;2022-09-09T17:09:14;17.50;1.00
314;DHT22;143;51.634;7.112;2022-09-09T17:11:41;17.50;1.00
314;DHT22;143;51.634;7.112;2022-09-09T17:14:08;17.40;1.00
314;DHT22;143;51.634;7.112;2022-09-09T17:16:36;17.40;1.00
314;DHT22;143;51.634;7.112;2022-09-09T17:19:03;17.30;1.00
314;DHT22;143;51.634;7.112;2022-09-09T17:21:30;17.30;1.00
314;DHT22;143;51.634;7.112;2022-09-09T17:23:57;17.20;1.00
314;DHT22;143;51.634;7.112;2022-09-09T17:26:25;17.20;1.00
314;DHT22;143;51.634;7.112;2022-09-09T17:28:55;17.20;1.00
314;DHT22;143;51.634;7.112;2022-09-09T17:31:23;17.20;1.00
314;DHT22;143;51.634;7.112;2022-09-09T17:33:51;17.20;1.00
314;DHT22;143;51.634;7.112;2022-09-09T17:36:25;17.20;1.00
314;DHT22;143;51.634;7.112;2022-09-09T17:38:51;17.20;1.00
314;DHT22;143;51.634;7.112;2022-09-09T17:41:20;17.20;1.00
314;DHT22;143;51.634;7.112;2022-09-09T17:43:46;17.20;1.00
314;DHT22;143;51.634;7.112;2022-09-09T17:46:16;17.20;1.00
314;DHT22;143;51.634;7.112;2022-09-09T17:48:43;17.20;1.00
314;DHT22;143;51.634;7.112;2022-09-09T17:51:13;17.20;1.00
314;DHT22;143;51.634;7.112;2022-09-09T17:53:41;17.20;1.00
314;DHT22;143;51.634;7.112;2022-09-09T17:56:09;17.20;1.00
314;DHT22;143;51.634;7.112;2022-09-09T17:58:36;17.20;1.00
314;DHT22;143;51.634;7.112;2022-09-09T18:01:07;17.20;1.00
314;DHT22;143;51.634;7.112;2022-09-09T18:03:34;17.20;1.00
314;DHT22;143;51.634;7.112;2022-09-09T18:06:02;17.10;1.00
314;DHT22;143;51.634;7.112;2022-09-09T18:08:28;17.10;1.00
314;DHT22;143;51.634;7.112;2022-09-09T18:10:54;17.10;1.00
314;DHT22;143;51.634;7.112;2022-09-09T18:13:21;17.10;1.00
314;DHT22;143;51.634;7.112;2022-09-09T18:15:47;17.10;1.00
314;DHT22;143;51.634;7.112;2022-09-09T18:18:13;17.10;1.00
314;DHT22;143;51.634;7.112;2022-09-09T18:20:39;17.00;1.00
314;DHT22;143;51.634;7.112;2022-09-09T18:23:05;17.00;1.00
314;DHT22;143;51.634;7.112;2022-09-09T18:25:36;17.10;1.00
314;DHT22;143;51.634;7.112;2022-09-09T18:28:02;17.00;1.00
314;DHT22;143;51.634;7.112;2022-09-09T18:30:27;17.00;1.00
314;DHT22;143;51.634;7.112;2022-09-09T18:32:54;17.00;1.00
314;DHT22;143;51.634;7.112;2022-09-09T18:35:20;17.00;1.00
314;DHT22;143;51.634;7.112;2022-09-09T18:37:46;17.00;1.00
314;DHT22;143;51.634;7.112;2022-09-09T18:40:12;17.00;1.00
314;DHT22;143;51.634;7.112;2022-09-09T18:42:38;17.00;1.00
314;DHT22;143;51.634;7.112;2022-09-09T18:45:04;17.00;1.00
314;DHT22;143;51.634;7.112;2022-09-09T18:47:30;17.00;1.00
314;DHT22;143;51.634;7.112;2022-09-09T18:49:55;17.00;1.00
314;DHT22;143;51.634;7.112;2022-09-09T18:52:21;17.00;1.00
314;DHT22;143;51.634;7.112;2022-09-09T18:54:47;17.10;1.00
314;DHT22;143;51.634;7.112;2022-09-09T18:57:13;17.00;1.00
314;DHT22;143;51.634;7.112;2022-09-09T18:59:38;17.00;1.00
314;DHT22;143;51.634;7.112;2022-09-09T19:02:04;17.00;1.00
314;DHT22;143;51.634;7.112;2022-09-09T19:04:30;17.00;1.00
314;DHT22;143;51.634;7.112;2022-09-09T19:06:57;17.00;1.00
314;DHT22;143;51.634;7.112;2022-09-09T19:09:27;17.00;1.00
314;DHT22;143;51.634;7.112;2022-09-09T19:11:53;17.00;1.00
314;DHT22;143;51.634;7.112;2022-09-09T19:14:18;16.90;1.00
314;DHT22;143;51.634;7.112;2022-09-09T19:16:45;16.90;1.00
314;DHT22;143;51.634;7.112;2022-09-09T19:19:24;16.90;1.00
314;DHT22;143;51.634;7.112;2022-09-09T19:21:51;16.90;1.00